Time;durP1;ratioP1;P1;durP2;ratioP2;P2;SDS_P1;SDS_P2;PMS_P1;PMS_P2;Temp;Humidity;BMP_temperature;BMP_pressure;BME280_temperature;BME280_humidity;BME280_pressure;Samples;Min_cycle;Max_cycle;Signal;HPM_P1;HPM_P2
2021/01/26 00:02:46;;;;;;;83.73;36.70;;;0.90;99.90;;;;;;6251022;28;20087;-76
2021/01/26 00:05:47;;;;;;;95.03;40.87;;;0.90;99.90;;;;;;6251507;28;20148;-76
2021/01/26 00:08:49;;;;;;;92.77;37.20;;;0.80;99.90;;;;;;6250737;28;20526;-76
2021/01/26 00:11:51;;;;;;;96.23;40.80;;;0.80;99.90;;;;;;6251492;28;20064;-76
2021/01/26 00:14:52;;;;;;;102.57;42.20;;;0.80;99.90;;;;;;6250971;28;20128;-76
2021/01/26 00:17:55;;;;;;;99.10;41.43;;;0.80;99.90;;;;;;6250504;28;20041;-76
2021/01/26 00:20:56;;;;;;;101.93;40.83;;;0.80;99.90;;;;;;6251183;28;20049;-76
2021/01/26 00:23:57;;;;;;;107.67;38.63;;;0.80;99.90;;;;;;6250581;28;20049;-76
2021/01/26 00:26:59;;;;;;;100.10;40.40;;;0.80;99.90;;;;;;6250192;28;20038;-76
2021/01/26 00:30:01;;;;;;;97.73;42.20;;;0.80;99.90;;;;;;6250685;28;20091;-76
2021/01/26 00:33:05;;;;;;;101.83;41.93;;;0.80;99.90;;;;;;6250729;28;20045;-77
2021/01/26 00:36:06;;;;;;;96.23;37.50;;;0.80;99.90;;;;;;6250232;28;20081;-77
2021/01/26 00:39:08;;;;;;;108.17;43.70;;;0.80;99.90;;;;;;6249567;28;20045;-77
2021/01/26 00:42:10;;;;;;;98.10;41.73;;;0.80;99.90;;;;;;6249854;28;20056;-76
2021/01/26 00:45:13;;;;;;;95.80;39.83;;;0.80;99.90;;;;;;6249748;28;20052;-77
2021/01/26 00:48:15;;;;;;;118.70;43.80;;;0.80;99.90;;;;;;6250642;28;20511;-76
2021/01/26 00:51:17;;;;;;;109.27;41.97;;;0.80;99.90;;;;;;6250172;28;20056;-76
2021/01/26 00:54:18;;;;;;;114.87;43.43;;;0.90;99.90;;;;;;6249995;28;20079;-77
2021/01/26 00:57:20;;;;;;;92.23;39.23;;;0.80;99.90;;;;;;6250274;28;20042;-77
2021/01/26 01:00:25;;;;;;;111.77;42.30;;;0.90;99.90;;;;;;6249478;28;20055;-77
2021/01/26 01:03:26;;;;;;;104.47;42.37;;;0.90;99.90;;;;;;6249740;28;20507;-76
2021/01/26 01:06:27;;;;;;;99.17;41.33;;;0.90;99.90;;;;;;6249734;28;20320;-78
2021/01/26 01:09:28;;;;;;;95.60;41.70;;;0.90;99.90;;;;;;6249432;28;20694;-76
2021/01/26 01:12:31;;;;;;;100.83;39.87;;;0.90;99.90;;;;;;6249083;28;20499;-76
2021/01/26 01:15:32;;;;;;;91.87;38.20;;;0.90;99.90;;;;;;6249211;28;20119;-76
2021/01/26 01:18:33;;;;;;;85.90;36.80;;;0.90;99.90;;;;;;6249114;28;20194;-76
2021/01/26 01:21:35;;;;;;;90.57;34.80;;;0.90;99.90;;;;;;6250551;28;20518;-76
2021/01/26 01:24:36;;;;;;;90.53;35.47;;;0.90;99.90;;;;;;6255549;28;20046;-76
2021/01/26 01:27:38;;;;;;;97.87;39.30;;;0.90;99.90;;;;;;6253441;28;20113;-76
2021/01/26 01:30:40;;;;;;;97.10;38.07;;;0.90;99.90;;;;;;6249270;28;20069;-76
2021/01/26 01:33:41;;;;;;;101.17;39.70;;;1.00;99.90;;;;;;6251027;28;20054;-76
2021/01/26 01:36:42;;;;;;;84.37;34.60;;;1.00;99.90;;;;;;6267483;28;20129;-77
2021/01/26 01:39:43;;;;;;;101.67;38.90;;;1.00;99.90;;;;;;6273202;28;20041;-76
2021/01/26 01:42:48;;;;;;;95.63;34.97;;;1.00;99.90;;;;;;6273311;28;20045;-76
2021/01/26 01:45:49;;;;;;;81.37;34.93;;;1.00;99.90;;;;;;6273810;28;20056;-76
2021/01/26 01:48:53;;;;;;;75.97;34.90;;;1.00;99.90;;;;;;6273555;28;20076;-76
2021/01/26 01:51:56;;;;;;;73.27;34.63;;;1.00;99.90;;;;;;6273435;28;20190;-76
2021/01/26 01:55:02;;;;;;;84.77;32.90;;;1.00;99.90;;;;;;6273117;28;20052;-76
2021/01/26 01:58:11;;;;;;;78.23;34.70;;;1.00;99.90;;;;;;6272974;28;20041;-76
2021/01/26 02:01:16;;;;;;;70.20;33.77;;;0.90;99.90;;;;;;6273854;28;20057;-76
2021/01/26 02:04:20;;;;;;;80.37;32.43;;;0.90;99.90;;;;;;6272852;28;20055;-76
2021/01/26 02:07:22;;;;;;;86.27;33.27;;;0.90;99.90;;;;;;6272878;28;20052;-76
2021/01/26 02:10:24;;;;;;;68.47;30.73;;;0.90;99.90;;;;;;6272261;28;20041;-76
2021/01/26 02:13:26;;;;;;;68.70;29.60;;;0.90;99.90;;;;;;6272916;28;20099;-76
2021/01/26 02:16:38;;;;;;;77.57;30.57;;;0.90;99.90;;;;;;6272033;28;20130;-76
2021/01/26 02:20:27;;;;;;;67.23;29.80;;;0.90;99.90;;;;;;6273071;28;20029;-76
2021/01/26 02:24:11;;;;;;;54.40;26.70;;;0.90;99.90;;;;;;6272621;28;20572;-76
2021/01/26 02:27:50;;;;;;;61.83;27.93;;;0.90;99.90;;;;;;6272484;28;20063;-76
2021/01/26 02:31:22;;;;;;;62.53;28.35;;;0.90;99.90;;;;;;6272132;28;20741;-76
2021/01/26 02:35:04;;;;;;;63.30;28.60;;;0.90;99.90;;;;;;6272948;28;20132;-77
2021/01/26 02:38:51;;;;;;;95.97;31.97;;;0.90;99.90;;;;;;6272299;28;20084;-76
2021/01/26 02:42:12;;;;;;;57.43;28.40;;;0.90;99.90;;;;;;6263995;28;20056;-76
2021/01/26 02:45:28;;;;;;;64.07;26.50;;;0.90;99.90;;;;;;6272361;28;20049;-76
2021/01/26 02:48:45;;;;;;;52.13;25.63;;;1.00;99.90;;;;;;6272011;28;20120;-76
2021/01/26 02:51:52;;;;;;;61.20;27.10;;;1.00;99.90;;;;;;6271531;28;20088;-76
2021/01/26 02:55:02;;;;;;;55.00;28.15;;;1.10;99.90;;;;;;6272075;28;20056;-76
2021/01/26 02:58:11;;;;;;;54.80;25.20;;;1.10;99.90;;;;;;6271748;28;20045;-76
2021/01/26 03:01:14;;;;;;;52.50;27.87;;;1.10;99.90;;;;;;6272917;28;20059;-76
2021/01/26 03:04:29;;;;;;;50.90;23.80;;;1.20;99.90;;;;;;6272486;28;20847;-77
2021/01/26 03:07:33;;;;;;;48.93;26.40;;;1.20;99.90;;;;;;6272710;28;20037;-76
2021/01/26 03:10:39;;;;;;;49.27;24.13;;;1.20;99.90;;;;;;6272304;28;20052;-76
2021/01/26 03:13:47;;;;;;;54.90;25.77;;;1.30;99.90;;;;;;6272445;28;20057;-76
2021/01/26 03:16:55;;;;;;;43.77;22.40;;;1.30;99.90;;;;;;6272275;28;20545;-76
2021/01/26 03:20:00;;;;;;;43.58;23.85;;;1.40;99.90;;;;;;6271508;28;20425;-76
2021/01/26 03:23:09;;;;;;;48.33;22.67;;;1.40;99.90;;;;;;6271908;28;20048;-77
2021/01/26 03:26:16;;;;;;;32.60;20.23;;;1.40;99.90;;;;;;6271862;28;20098;-76
2021/01/26 03:29:22;;;;;;;35.20;19.50;;;1.40;99.90;;;;;;6273701;28;20048;-77
2021/01/26 03:32:27;;;;;;;38.70;21.60;;;1.50;99.90;;;;;;6276903;28;20053;-77
2021/01/26 03:35:28;;;;;;;37.20;20.27;;;1.50;99.90;;;;;;6276084;28;20564;-77
2021/01/26 03:38:31;;;;;;;30.90;18.67;;;1.40;99.90;;;;;;6276479;28;20052;-77
2021/01/26 03:41:33;;;;;;;35.30;17.70;;;1.50;99.90;;;;;;6277283;28;20144;-76
2021/01/26 03:44:35;;;;;;;24.10;17.00;;;1.50;99.90;;;;;;6276543;28;20056;-76
2021/01/26 03:47:44;;;;;;;23.93;14.17;;;1.60;99.90;;;;;;6276015;28;20448;-77
2021/01/26 03:50:55;;;;;;;22.97;13.63;;;1.60;99.90;;;;;;6276490;28;20112;-77
2021/01/26 03:54:26;;;;;;;20.73;13.20;;;1.60;99.90;;;;;;6276697;28;20064;-77
2021/01/26 03:57:50;;;;;;;17.63;12.00;;;1.70;99.90;;;;;;6276120;28;20060;-76
2021/01/26 04:00:58;;;;;;;26.67;13.47;;;1.70;99.90;;;;;;6275892;28;20052;-76
2021/01/26 04:04:02;;;;;;;;;;;1.60;99.90;;;;;;6275881;28;20422;-76
2021/01/26 04:07:10;;;;;;;16.60;11.63;;;1.70;99.90;;;;;;6275265;28;19966;-76
2021/01/26 04:10:15;;;;;;;16.02;12.15;;;1.70;99.60;;;;;;6275814;28;20104;-76
2021/01/26 04:13:21;;;;;;;16.80;10.40;;;1.70;99.70;;;;;;6275429;28;20048;-76
2021/01/26 04:16:27;;;;;;;20.43;13.40;;;1.70;99.70;;;;;;6275207;28;20135;-76
2021/01/26 04:19:34;;;;;;;17.10;10.03;;;1.70;99.40;;;;;;6275120;28;20641;-76
2021/01/26 04:22:36;;;;;;;19.40;10.73;;;1.80;99.10;;;;;;6275545;28;20588;-76
2021/01/26 04:25:40;;;;;;;13.67;9.07;;;1.80;98.50;;;;;;6275554;28;20103;-76
2021/01/26 04:28:43;;;;;;;15.03;9.90;;;1.80;98.70;;;;;;6274734;28;20068;-77
2021/01/26 04:31:45;;;;;;;15.10;8.57;;;1.80;98.70;;;;;;6274995;28;20578;-77
2021/01/26 04:34:47;;;;;;;13.83;9.73;;;1.80;98.00;;;;;;6275726;28;20068;-76
2021/01/26 04:37:48;;;;;;;18.23;10.30;;;1.80;97.90;;;;;;6275733;28;20041;-77
2021/01/26 04:40:51;;;;;;;20.80;9.63;;;1.80;97.30;;;;;;6275007;28;20102;-77
2021/01/26 04:44:12;;;;;;;16.63;10.47;;;1.90;97.50;;;;;;6275259;28;20045;-77
2021/01/26 04:47:21;;;;;;;13.83;8.67;;;1.90;97.40;;;;;;6275280;28;20588;-77
2021/01/26 04:50:31;;;;;;;20.67;9.10;;;1.90;97.10;;;;;;6275187;28;20115;-77
2021/01/26 04:54:09;;;;;;;13.07;8.80;;;1.90;97.00;;;;;;6276038;28;20053;-77
2021/01/26 04:57:29;;;;;;;16.88;8.23;;;1.90;96.70;;;;;;6273392;28;20125;-77
2021/01/26 05:00:38;;;;;;;9.43;7.63;;;1.90;96.90;;;;;;6274831;28;20048;-77
2021/01/26 05:04:00;;;;;;;16.03;9.03;;;1.90;96.70;;;;;;6276133;28;20516;-77
2021/01/26 05:07:07;;;;;;;13.57;8.97;;;2.00;96.90;;;;;;6278719;28;20571;-76
2021/01/26 05:10:13;;;;;;;9.45;6.70;;;1.90;96.30;;;;;;6285135;28;20053;-76
2021/01/26 05:13:20;;;;;;;13.03;7.87;;;1.90;96.10;;;;;;6279137;28;20113;-77
2021/01/26 05:16:25;;;;;;;13.50;7.93;;;2.00;96.30;;;;;;6294604;28;20055;-76
2021/01/26 05:19:33;;;;;;;10.97;8.30;;;2.00;96.20;;;;;;6305868;28;20080;-76
2021/01/26 05:22:40;;;;;;;13.67;7.57;;;2.00;96.00;;;;;;6306608;28;20029;-76
2021/01/26 05:25:41;;;;;;;12.07;7.00;;;2.00;95.80;;;;;;6306392;28;20092;-76
2021/01/26 05:28:43;;;;;;;12.83;7.77;;;2.00;96.20;;;;;;6304672;28;20048;-75
2021/01/26 05:31:49;;;;;;;11.30;6.87;;;2.00;96.60;;;;;;6305076;28;20088;-75
2021/01/26 05:34:53;;;;;;;11.07;7.63;;;2.00;96.10;;;;;;6305089;28;20108;-76
2021/01/26 05:37:55;;;;;;;11.60;7.90;;;2.10;96.00;;;;;;6305042;28;20097;-76
2021/01/26 05:41:00;;;;;;;14.13;8.00;;;2.00;95.70;;;;;;6305115;28;20085;-76
2021/01/26 05:44:02;;;;;;;9.80;6.83;;;2.10;95.50;;;;;;6303678;28;20051;-76
2021/01/26 05:47:21;;;;;;;15.03;8.77;;;2.10;95.70;;;;;;6303976;28;20059;-75
2021/01/26 05:50:24;;;;;;;;;;;2.10;95.70;;;;;;6303915;28;20048;-76
2021/01/26 05:53:28;;;;;;;8.40;6.37;;;2.10;96.00;;;;;;6281473;28;20325;-76
2021/01/26 05:56:30;;;;;;;14.50;9.40;;;2.10;95.20;;;;;;6278717;28;20167;-77
2021/01/26 05:59:33;;;;;;;9.63;7.13;;;2.10;94.50;;;;;;6280494;28;20056;-76
2021/01/26 06:02:35;;;;;;;12.20;7.50;;;2.10;94.30;;;;;;6279025;28;20132;-76
2021/01/26 06:05:37;;;;;;;14.47;7.33;;;2.10;94.50;;;;;;6276027;28;20139;-76
2021/01/26 06:08:50;;;;;;;8.83;6.63;;;2.10;94.40;;;;;;6275558;28;20477;-76
2021/01/26 06:12:08;;;;;;;9.57;6.40;;;2.10;94.30;;;;;;6275116;28;20068;-76
2021/01/26 06:15:11;;;;;;;12.35;6.65;;;2.10;94.60;;;;;;6274926;28;20447;-76
2021/01/26 06:18:17;;;;;;;8.80;6.13;;;2.10;94.40;;;;;;6276020;28;20091;-76
2021/01/26 06:21:19;;;;;;;10.27;6.30;;;2.20;94.60;;;;;;6272991;28;20457;-77
2021/01/26 06:24:23;;;;;;;14.40;7.37;;;2.20;94.00;;;;;;6273597;28;20049;-77
2021/01/26 06:27:51;;;;;;;12.73;7.87;;;2.20;94.00;;;;;;6272511;28;20045;-76
2021/01/26 06:30:58;;;;;;;10.57;5.67;;;2.20;94.00;;;;;;6272254;28;20060;-77
2021/01/26 06:34:21;;;;;;;15.43;6.40;;;2.20;94.30;;;;;;6272806;28;20064;-77
2021/01/26 06:38:07;;;;;;;12.87;6.97;;;2.20;94.70;;;;;;6270369;28;20124;-77
2021/01/26 06:41:23;;;;;;;11.87;6.40;;;2.30;95.00;;;;;;6243978;28;20138;-77
2021/01/26 06:44:38;;;;;;;9.90;5.43;;;2.30;94.80;;;;;;6273461;28;20091;-77
2021/01/26 06:48:20;;;;;;;10.93;6.30;;;2.30;94.40;;;;;;6273030;28;20052;-77
2021/01/26 06:52:12;;;;;;;14.43;6.93;;;2.30;94.30;;;;;;6271217;28;20499;-76
2021/01/26 06:55:38;;;;;;;11.90;7.03;;;2.30;94.30;;;;;;6274003;28;20128;-76
2021/01/26 06:59:06;;;;;;;14.90;6.10;;;2.30;94.70;;;;;;6272040;28;20052;-77
2021/01/26 07:02:48;;;;;;;12.13;6.72;;;2.30;94.50;;;;;;6269935;28;20064;-76
2021/01/26 07:06:15;;;;;;;12.97;7.63;;;2.30;94.40;;;;;;6259186;28;20080;-77
2021/01/26 07:09:39;;;;;;;15.97;7.93;;;2.50;96.80;;;;;;6252739;28;20045;-77
2021/01/26 07:13:06;;;;;;;17.83;8.27;;;2.30;94.60;;;;;;6254250;28;20124;-77
2021/01/26 07:16:29;;;;;;;15.40;8.90;;;2.30;94.70;;;;;;6277634;28;20048;-76
2021/01/26 07:19:54;;;;;;;14.80;6.90;;;2.40;94.90;;;;;;6277013;28;20041;-76
2021/01/26 07:23:20;;;;;;;7.77;5.67;;;2.40;94.50;;;;;;6260623;28;20363;-77
2021/01/26 07:26:48;;;;;;;8.43;5.87;;;2.40;94.60;;;;;;6252646;28;20045;-76
2021/01/26 07:29:56;;;;;;;15.73;6.53;;;2.40;94.40;;;;;;6251856;28;20055;-77
2021/01/26 07:33:04;;;;;;;16.60;6.97;;;2.40;94.50;;;;;;6253010;28;20049;-76
2021/01/26 07:36:10;;;;;;;;;;;2.40;94.40;;;;;;6266921;28;20084;-76
2021/01/26 07:39:19;;;;;;;12.00;6.60;;;2.40;94.50;;;;;;6286571;28;20011;-77
2021/01/26 07:42:23;;;;;;;16.63;6.60;;;2.40;94.20;;;;;;6298127;28;20063;-76
2021/01/26 07:45:31;;;;;;;9.20;7.03;;;2.50;94.20;;;;;;6277558;28;20052;-77
2021/01/26 07:48:37;;;;;;;12.23;7.07;;;2.50;94.10;;;;;;6278058;28;20045;-77
2021/01/26 07:51:42;;;;;;;10.10;6.30;;;2.50;93.80;;;;;;6276342;28;20053;-76
2021/01/26 07:54:54;;;;;;;13.83;6.77;;;2.50;93.60;;;;;;6276443;28;20045;-77
2021/01/26 07:57:59;;;;;;;15.17;6.80;;;2.50;93.80;;;;;;6278157;28;20147;-77
2021/01/26 08:01:03;;;;;;;16.10;6.77;;;2.50;93.50;;;;;;6304135;28;20060;-77
2021/01/26 08:04:06;;;;;;;11.50;6.67;;;2.50;93.30;;;;;;6305110;28;20501;-76
2021/01/26 08:07:08;;;;;;;16.50;6.63;;;2.60;93.60;;;;;;6300358;28;20048;-76
2021/01/26 08:10:18;;;;;;;12.27;5.57;;;2.50;93.50;;;;;;6300585;28;20136;-76
2021/01/26 08:13:27;;;;;;;9.43;6.63;;;2.60;93.30;;;;;;6303648;28;20048;-77
2021/01/26 08:16:32;;;;;;;9.67;6.60;;;2.60;93.30;;;;;;6300778;28;20094;-76
2021/01/26 08:19:37;;;;;;;14.00;5.97;;;2.60;93.50;;;;;;6300765;28;20044;-76
2021/01/26 08:22:40;;;;;;;8.00;5.50;;;2.60;93.60;;;;;;6301313;28;20552;-76
2021/01/26 08:25:43;;;;;;;17.77;7.13;;;2.60;93.50;;;;;;6302614;28;20417;-77
2021/01/26 08:28:47;;;;;;;11.77;6.33;;;2.60;93.60;;;;;;6302079;28;20051;-76
2021/01/26 08:31:48;;;;;;;11.37;6.00;;;2.70;93.80;;;;;;6302488;28;20060;-77
2021/01/26 08:34:59;;;;;;;9.43;6.83;;;2.60;92.70;;;;;;6301831;28;20045;-77
2021/01/26 08:38:03;;;;;;;7.80;5.87;;;2.70;92.50;;;;;;6300335;28;20044;-77
2021/01/26 08:41:07;;;;;;;8.73;6.73;;;2.70;92.50;;;;;;6300524;28;20388;-77
2021/01/26 08:44:28;;;;;;;10.77;6.67;;;2.70;92.60;;;;;;6300864;28;20139;-77
2021/01/26 08:47:49;;;;;;;9.87;5.50;;;2.70;92.30;;;;;;6300463;28;20045;-77
2021/01/26 08:51:13;;;;;;;10.80;6.60;;;2.70;92.50;;;;;;6300392;28;20501;-76
2021/01/26 08:54:37;;;;;;;11.27;7.00;;;2.80;92.10;;;;;;6299521;28;20048;-77
2021/01/26 08:57:42;;;;;;;12.00;6.83;;;2.80;92.00;;;;;;6307510;28;20059;-76
2021/01/26 09:00:47;;;;;;;7.50;6.13;;;2.80;91.80;;;;;;6300995;28;20040;-77
2021/01/26 09:03:49;;;;;;;12.53;8.80;;;2.80;91.90;;;;;;6300955;28;20536;-76
2021/01/26 09:06:51;;;;;;;8.73;6.00;;;2.90;91.80;;;;;;6299341;28;20048;-76
2021/01/26 09:09:54;;;;;;;8.80;6.20;;;2.90;92.00;;;;;;6298921;28;20076;-77
2021/01/26 09:13:03;;;;;;;13.33;6.83;;;2.90;91.70;;;;;;6293860;28;20124;-76
2021/01/26 09:16:17;;;;;;;7.13;5.40;;;3.00;91.80;;;;;;6275417;28;20072;-76
2021/01/26 09:19:22;;;;;;;11.13;8.00;;;3.10;91.80;;;;;;6274222;28;20059;-76
2021/01/26 09:22:27;;;;;;;11.03;7.40;;;3.10;91.40;;;;;;6273963;28;20119;-76
2021/01/26 09:25:32;;;;;;;10.87;6.40;;;3.10;91.40;;;;;;6273883;28;20139;-77
2021/01/26 09:28:39;;;;;;;11.75;6.95;;;3.10;91.50;;;;;;6273606;28;20131;-76
2021/01/26 09:31:41;;;;;;;9.98;5.55;;;3.20;92.10;;;;;;6274314;28;20036;-76
2021/01/26 09:34:42;;;;;;;9.60;5.68;;;3.10;91.50;;;;;;6273867;28;20044;-76
2021/01/26 09:37:44;;;;;;;9.30;5.97;;;3.10;91.70;;;;;;6273623;28;20132;-76
2021/01/26 09:40:54;;;;;;;10.60;6.50;;;3.10;92.10;;;;;;6273282;28;20135;-76
2021/01/26 09:44:02;;;;;;;8.88;5.82;;;3.10;91.90;;;;;;6273782;28;20048;-76
2021/01/26 09:47:06;;;;;;;13.95;6.72;;;3.10;91.80;;;;;;6274105;28;20041;-76
2021/01/26 09:50:11;;;;;;;12.10;7.30;;;3.10;91.80;;;;;;6273463;28;20083;-76
2021/01/26 09:53:13;;;;;;;9.20;6.40;;;3.10;91.20;;;;;;6274362;28;20053;-76
2021/01/26 09:56:18;;;;;;;15.80;7.47;;;3.20;90.90;;;;;;6273582;28;20099;-76
2021/01/26 09:59:21;;;;;;;26.83;6.57;;;3.30;91.20;;;;;;6272890;28;20045;-76
2021/01/26 10:02:22;;;;;;;10.77;7.80;;;3.40;90.90;;;;;;6273077;28;20048;-76
2021/01/26 10:05:25;;;;;;;9.30;6.45;;;3.40;90.90;;;;;;6273990;28;20499;-76
2021/01/26 10:08:33;;;;;;;13.70;5.68;;;3.50;90.60;;;;;;6273278;28;20690;-78
2021/01/26 10:11:34;;;;;;;10.98;7.35;;;3.50;90.50;;;;;;6272356;28;20095;-76
2021/01/26 10:14:35;;;;;;;11.45;6.45;;;3.50;90.10;;;;;;6292982;28;20064;-77
2021/01/26 10:17:49;;;;;;;16.83;7.63;;;3.60;90.10;;;;;;6297850;28;20058;-77
2021/01/26 10:20:55;;;;;;;12.13;6.28;;;3.80;90.00;;;;;;6298274;28;20119;-76
2021/01/26 10:24:03;;;;;;;22.05;6.32;;;3.90;89.20;;;;;;6297727;28;20040;-76
2021/01/26 10:27:08;;;;;;;16.20;6.30;;;4.10;88.60;;;;;;6296289;28;20127;-76
2021/01/26 10:30:15;;;;;;;12.23;6.63;;;4.20;86.40;;;;;;6297025;28;20040;-76
2021/01/26 10:33:37;;;;;;;11.80;6.10;;;4.20;86.80;;;;;;6298060;28;20486;-76
2021/01/26 10:36:38;;;;;;;9.65;6.97;;;4.20;86.20;;;;;;6297328;28;20302;-76
2021/01/26 10:39:41;;;;;;;8.73;5.72;;;4.20;87.00;;;;;;6305228;28;20044;-77
2021/01/26 10:42:57;;;;;;;28.17;7.03;;;4.20;88.30;;;;;;6297309;28;20131;-77
2021/01/26 10:45:59;;;;;;;9.73;6.47;;;4.40;87.90;;;;;;6297686;28;20146;-78
2021/01/26 10:49:14;;;;;;;11.05;7.07;;;4.50;86.70;;;;;;6297865;28;20052;-77
2021/01/26 10:52:36;;;;;;;15.43;6.38;;;4.50;85.40;;;;;;6297408;28;20048;-77
2021/01/26 10:55:38;;;;;;;13.20;7.30;;;4.60;85.50;;;;;;6297315;28;20044;-77
2021/01/26 10:58:41;;;;;;;8.80;6.13;;;4.80;84.70;;;;;;6297294;28;20119;-77
2021/01/26 11:01:43;;;;;;;10.10;5.97;;;5.00;83.20;;;;;;6296982;28;20054;-77
2021/01/26 11:04:44;;;;;;;16.10;7.72;;;5.00;82.40;;;;;;6296448;28;20049;-77
2021/01/26 11:07:46;;;;;;;12.07;5.82;;;4.90;81.90;;;;;;6296895;28;20041;-77
2021/01/26 11:10:48;;;;;;;8.98;6.22;;;4.80;81.00;;;;;;6296542;28;20080;-77
2021/01/26 11:13:50;;;;;;;15.45;6.95;;;4.70;81.80;;;;;;6284408;28;20064;-76
2021/01/26 11:16:51;;;;;;;17.30;8.57;;;4.60;82.10;;;;;;6274656;28;20132;-77
2021/01/26 11:19:53;;;;;;;10.88;6.75;;;4.60;82.20;;;;;;6271562;28;20171;-77
2021/01/26 11:22:54;;;;;;;10.52;5.82;;;4.60;82.40;;;;;;6272173;28;20510;-76
2021/01/26 11:25:57;;;;;;;9.40;6.28;;;4.70;82.20;;;;;;6272770;28;20052;-77
2021/01/26 11:28:59;;;;;;;7.13;5.03;;;4.70;82.70;;;;;;6272248;28;20513;-76
2021/01/26 11:32:01;;;;;;;13.30;6.35;;;4.80;82.50;;;;;;6271399;28;20138;-76
2021/01/26 11:35:04;;;;;;;6.30;4.90;;;4.80;81.20;;;;;;6271354;28;20049;-76
2021/01/26 11:38:05;;;;;;;5.60;4.97;;;4.70;80.70;;;;;;6271715;28;20045;-76
2021/01/26 11:41:08;;;;;;;7.88;4.90;;;4.70;82.00;;;;;;6272322;28;20045;-77
2021/01/26 11:44:10;;;;;;;7.07;4.95;;;4.70;81.00;;;;;;6272651;28;20052;-77
2021/01/26 11:47:11;;;;;;;8.85;5.65;;;4.60;80.80;;;;;;6271348;28;20462;-76
2021/01/26 11:50:14;;;;;;;8.38;4.05;;;4.50;80.90;;;;;;6273433;28;20498;-77
2021/01/26 11:53:17;;;;;;;10.18;5.38;;;4.40;81.50;;;;;;6284983;28;20052;-77
2021/01/26 11:56:21;;;;;;;7.28;5.75;;;4.40;81.30;;;;;;6293325;28;20045;-76
2021/01/26 11:59:23;;;;;;;8.90;5.22;;;4.30;81.20;;;;;;6298722;28;20123;-77
2021/01/26 12:02:25;;;;;;;12.15;5.90;;;4.40;81.80;;;;;;6298482;28;20086;-76
2021/01/26 12:05:28;;;;;;;7.18;4.95;;;4.40;81.60;;;;;;6296739;28;20086;-76
2021/01/26 12:08:29;;;;;;;12.15;4.75;;;4.40;81.90;;;;;;6297437;28;20041;-76
2021/01/26 12:11:32;;;;;;;9.00;4.97;;;4.50;82.30;;;;;;6298137;28;20545;-76
2021/01/26 12:14:33;;;;;;;6.43;4.55;;;4.50;81.70;;;;;;6293289;28;20107;-76
2021/01/26 12:17:35;;;;;;;7.80;4.85;;;4.60;82.20;;;;;;6296513;28;20072;-77
2021/01/26 12:20:36;;;;;;;7.63;4.43;;;4.60;82.60;;;;;;6289926;28;20119;-76
2021/01/26 12:23:38;;;;;;;6.18;4.60;;;4.60;81.10;;;;;;6297667;28;20437;-76
2021/01/26 12:26:41;;;;;;;6.57;4.38;;;4.50;81.60;;;;;;6293558;28;20540;-74
2021/01/26 12:29:43;;;;;;;7.05;5.70;;;4.50;82.20;;;;;;6297329;28;20064;-75
2021/01/26 12:32:45;;;;;;;8.20;5.38;;;4.60;82.10;;;;;;6293103;28;20545;-75
2021/01/26 12:35:47;;;;;;;11.57;5.00;;;4.70;82.10;;;;;;6295224;28;20036;-75
2021/01/26 12:38:51;;;;;;;16.70;9.63;;;4.70;82.50;;;;;;6295198;28;20124;-75
2021/01/26 12:41:54;;;;;;;7.85;6.43;;;4.80;82.20;;;;;;6299538;28;20056;-75
2021/01/26 12:44:56;;;;;;;22.38;14.43;;;4.90;80.40;;;;;;6296305;28;20044;-76
2021/01/26 12:47:58;;;;;;;10.20;5.00;;;4.90;80.60;;;;;;6292866;28;20041;-75
2021/01/26 12:51:00;;;;;;;14.35;5.68;;;5.00;79.70;;;;;;6297877;28;20044;-76
2021/01/26 12:54:02;;;;;;;9.23;5.82;;;5.10;78.40;;;;;;6287283;28;20052;-76
2021/01/26 12:57:05;;;;;;;33.20;22.95;;;5.10;77.70;;;;;;6291949;28;20052;-75
2021/01/26 13:00:10;;;;;;;18.83;14.23;;;5.10;77.10;;;;;;6295095;28;20048;-75
2021/01/26 13:03:12;;;;;;;18.40;15.70;;;5.20;77.20;;;;;;6293474;28;20056;-75
2021/01/26 13:06:14;;;;;;;34.55;22.25;;;5.20;76.90;;;;;;6286381;28;20106;-75
2021/01/26 13:09:19;;;;;;;18.40;14.38;;;5.30;77.30;;;;;;6297151;28;20140;-76
2021/01/26 13:12:22;;;;;;;15.93;8.23;;;5.40;76.90;;;;;;6292207;28;20135;-75
2021/01/26 13:15:25;;;;;;;6.65;5.32;;;5.50;76.80;;;;;;6293149;28;20592;-75
2021/01/26 13:18:27;;;;;;;19.15;15.52;;;5.60;78.10;;;;;;6285763;28;20041;-75
2021/01/26 13:21:29;;;;;;;25.55;17.52;;;5.70;78.00;;;;;;6287898;28;20051;-75
2021/01/26 13:24:31;;;;;;;24.63;16.05;;;5.90;76.00;;;;;;6296802;28;20052;-75
2021/01/26 13:27:33;;;;;;;23.17;14.70;;;6.00;76.00;;;;;;6291248;28;20492;-75
2021/01/26 13:30:35;;;;;;;16.13;10.15;;;6.00;75.60;;;;;;6293946;28;20048;-75
2021/01/26 13:33:37;;;;;;;6.88;4.55;;;6.10;75.70;;;;;;6279295;28;20040;-75
2021/01/26 13:36:39;;;;;;;12.32;4.05;;;6.10;73.60;;;;;;6290759;28;20049;-75
2021/01/26 13:39:40;;;;;;;6.78;3.92;;;6.10;74.00;;;;;;6280776;28;20374;-75
2021/01/26 13:42:43;;;;;;;4.68;3.05;;;6.00;73.70;;;;;;6285141;28;20043;-74
2021/01/26 13:45:45;;;;;;;8.40;3.35;;;5.80;72.80;;;;;;6297339;28;20573;-76
2021/01/26 13:48:47;;;;;;;4.63;3.50;;;5.60;74.00;;;;;;6274404;28;20043;-75
2021/01/26 13:51:49;;;;;;;10.63;3.70;;;5.50;74.60;;;;;;6297165;28;20044;-75
2021/01/26 13:54:50;;;;;;;9.35;4.05;;;5.50;75.60;;;;;;6293814;28;20040;-74
2021/01/26 13:57:54;;;;;;;4.63;3.20;;;5.50;76.20;;;;;;6296663;28;20045;-75
2021/01/26 14:00:55;;;;;;;4.40;3.60;;;5.40;75.10;;;;;;6297001;28;20079;-75
2021/01/26 14:04:00;;;;;;;4.43;3.53;;;5.40;75.20;;;;;;6296791;28;20048;-76
2021/01/26 14:07:02;;;;;;;4.45;3.20;;;5.40;75.40;;;;;;6293731;28;20040;-76
2021/01/26 14:10:04;;;;;;;6.45;3.60;;;5.30;75.20;;;;;;6288226;28;20021;-76
2021/01/26 14:13:07;;;;;;;6.90;4.35;;;5.20;76.20;;;;;;6292102;28;20048;-75
2021/01/26 14:16:10;;;;;;;5.60;3.30;;;5.20;76.30;;;;;;6282128;28;20426;-75
2021/01/26 14:19:12;;;;;;;5.10;3.92;;;5.20;76.00;;;;;;6296403;28;20052;-76
2021/01/26 14:22:15;;;;;;;5.25;4.75;;;5.10;75.30;;;;;;6291979;28;20090;-75
2021/01/26 14:25:18;;;;;;;5.00;4.03;;;5.10;77.10;;;;;;6280424;28;20106;-76
2021/01/26 14:28:21;;;;;;;5.53;3.40;;;5.00;76.70;;;;;;6297136;28;20047;-76
2021/01/26 14:31:23;;;;;;;7.57;6.20;;;5.10;75.80;;;;;;6296315;28;20119;-75
2021/01/26 14:34:24;;;;;;;7.70;5.90;;;5.00;76.40;;;;;;6295798;28;20068;-75
2021/01/26 14:37:26;;;;;;;6.72;3.90;;;5.10;76.40;;;;;;6296222;28;20083;-75
2021/01/26 14:40:28;;;;;;;11.88;5.40;;;5.10;76.10;;;;;;6286516;28;20052;-75
2021/01/26 14:43:32;;;;;;;9.90;4.30;;;5.10;77.50;;;;;;6295723;28;20052;-76
2021/01/26 14:46:34;;;;;;;3.85;3.03;;;5.10;76.50;;;;;;6292874;28;20068;-76
2021/01/26 14:49:35;;;;;;;5.30;2.88;;;5.20;75.70;;;;;;6293466;28;20045;-75
2021/01/26 14:52:37;;;;;;;5.70;3.95;;;5.20;77.10;;;;;;6288999;28;20055;-76
2021/01/26 14:55:39;;;;;;;5.85;3.65;;;5.20;76.90;;;;;;6295395;28;20553;-75
2021/01/26 14:58:42;;;;;;;5.68;3.60;;;5.30;76.60;;;;;;6292755;28;20524;-75
2021/01/26 15:01:44;;;;;;;6.95;6.25;;;5.30;76.10;;;;;;6295261;28;20052;-74
2021/01/26 15:04:46;;;;;;;6.93;6.22;;;5.30;75.90;;;;;;6289653;28;20059;-75
2021/01/26 15:07:48;;;;;;;5.72;4.68;;;5.30;75.30;;;;;;6294907;28;20051;-75
2021/01/26 15:10:50;;;;;;;6.13;3.10;;;5.20;76.40;;;;;;6295517;28;20045;-75
2021/01/26 15:13:52;;;;;;;5.13;3.65;;;5.20;77.40;;;;;;6289678;28;20510;-75
2021/01/26 15:16:54;;;;;;;10.20;3.92;;;5.20;77.30;;;;;;6289170;28;20056;-75
2021/01/26 15:19:59;;;;;;;6.88;3.58;;;5.20;78.80;;;;;;6277729;28;20040;-76
2021/01/26 15:23:00;;;;;;;5.47;3.45;;;5.10;78.00;;;;;;6294962;28;20418;-77
2021/01/26 15:26:01;;;;;;;4.35;3.17;;;5.10;78.20;;;;;;6303271;28;20759;-78
2021/01/26 15:29:04;;;;;;;10.90;4.53;;;5.00;78.10;;;;;;6292845;28;20073;-77
2021/01/26 15:32:05;;;;;;;8.02;3.28;;;5.00;78.60;;;;;;6282222;28;20052;-75
2021/01/26 15:35:09;;;;;;;8.90;7.95;;;4.90;79.00;;;;;;6292033;28;20363;-75
2021/01/26 15:38:10;;;;;;;4.78;3.63;;;4.90;79.30;;;;;;6299008;28;20052;-75
2021/01/26 15:41:13;;;;;;;5.45;3.15;;;4.90;79.20;;;;;;6288109;28;20056;-75
2021/01/26 15:44:15;;;;;;;8.00;5.70;;;;;;;;;;6296063;28;20124;-75
2021/01/26 15:47:17;;;;;;;5.95;4.80;;;4.70;79.10;;;;;;6296088;28;20076;-75
2021/01/26 15:50:20;;;;;;;4.90;3.40;;;4.60;80.30;;;;;;6296127;28;20053;-75
2021/01/26 15:53:24;;;;;;;4.03;3.03;;;4.60;81.30;;;;;;6298764;28;20135;-76
2021/01/26 15:56:25;;;;;;;5.13;3.28;;;4.50;81.60;;;;;;6296129;28;20047;-75
2021/01/26 15:59:28;;;;;;;7.70;4.00;;;4.50;82.00;;;;;;6295318;28;20045;-75
2021/01/26 16:02:29;;;;;;;9.68;4.00;;;4.40;81.80;;;;;;6298095;28;20128;-75
2021/01/26 16:05:30;;;;;;;7.10;3.55;;;4.40;82.90;;;;;;6296406;28;20187;-76
2021/01/26 16:08:33;;;;;;;7.30;5.70;;;4.30;83.00;;;;;;6298122;28;20039;-75
2021/01/26 16:11:34;;;;;;;8.18;3.47;;;4.30;82.40;;;;;;6292670;28;20559;-76
2021/01/26 16:14:36;;;;;;;3.92;3.17;;;4.20;82.50;;;;;;6287660;28;20075;-75